sensor_id;sensor_type;location;lat;lon;timestamp;temperature;humidity
13642;DHT22;6894;52.196;9.904;2023-07-24T00:01:31;19.80;99.90
13642;DHT22;6894;52.196;9.904;2023-07-24T00:03:58;19.90;99.90
13642;DHT22;6894;52.196;9.904;2023-07-24T00:06:25;19.90;99.90
13642;DHT22;6894;52.196;9.904;2023-07-24T00:08:51;19.90;99.90
13642;DHT22;6894;52.196;9.904;2023-07-24T00:11:20;19.90;99.90
13642;DHT22;6894;52.196;9.904;2023-07-24T00:13:46;19.80;99.90
13642;DHT22;6894;52.196;9.904;2023-07-24T00:16:13;19.80;99.90
13642;DHT22;6894;52.196;9.904;2023-07-24T00:18:40;19.80;99.90
13642;DHT22;6894;52.196;9.904;2023-07-24T00:21:07;19.80;99.90
13642;DHT22;6894;52.196;9.904;2023-07-24T00:23:36;19.80;99.90
13642;DHT22;6894;52.196;9.904;2023-07-24T00:26:03;19.80;99.90
13642;DHT22;6894;52.196;9.904;2023-07-24T00:28:32;19.80;99.90
13642;DHT22;6894;52.196;9.904;2023-07-24T00:30:58;19.90;99.90
13642;DHT22;6894;52.196;9.904;2023-07-24T00:33:25;19.80;99.90
13642;DHT22;6894;52.196;9.904;2023-07-24T00:35:55;19.80;99.90
13642;DHT22;6894;52.196;9.904;2023-07-24T00:38:23;19.80;99.90
13642;DHT22;6894;52.196;9.904;2023-07-24T00:40:50;19.80;99.90
13642;DHT22;6894;52.196;9.904;2023-07-24T00:43:16;19.80;99.90
13642;DHT22;6894;52.196;9.904;2023-07-24T00:45:46;19.80;99.90
13642;DHT22;6894;52.196;9.904;2023-07-24T00:48:13;19.80;99.90
13642;DHT22;6894;52.196;9.904;2023-07-24T00:50:42;19.80;99.90
13642;DHT22;6894;52.196;9.904;2023-07-24T00:53:09;19.80;99.90
13642;DHT22;6894;52.196;9.904;2023-07-24T00:55:36;19.80;99.90
13642;DHT22;6894;52.196;9.904;2023-07-24T00:58:03;19.70;99.90
13642;DHT22;6894;52.196;9.904;2023-07-24T01:00:30;19.70;99.90
13642;DHT22;6894;52.196;9.904;2023-07-24T01:02:59;19.70;99.90
13642;DHT22;6894;52.196;9.904;2023-07-24T01:05:26;19.80;99.90
13642;DHT22;6894;52.196;9.904;2023-07-24T01:07:52;19.70;99.90
13642;DHT22;6894;52.196;9.904;2023-07-24T01:10:19;19.70;99.90
13642;DHT22;6894;52.196;9.904;2023-07-24T01:12:59;19.70;99.90
13642;DHT22;6894;52.196;9.904;2023-07-24T01:15:31;19.70;99.90
13642;DHT22;6894;52.196;9.904;2023-07-24T01:18:03;19.70;99.90
13642;DHT22;6894;52.196;9.904;2023-07-24T01:20:35;19.80;99.90
13642;DHT22;6894;52.196;9.904;2023-07-24T01:23:14;19.60;99.90
13642;DHT22;6894;52.196;9.904;2023-07-24T01:25:56;19.70;99.90
13642;DHT22;6894;52.196;9.904;2023-07-24T01:28:23;19.60;99.90
13642;DHT22;6894;52.196;9.904;2023-07-24T01:30:49;19.60;99.90
13642;DHT22;6894;52.196;9.904;2023-07-24T01:33:17;19.60;99.90
13642;DHT22;6894;52.196;9.904;2023-07-24T01:35:44;19.70;99.90
13642;DHT22;6894;52.196;9.904;2023-07-24T01:38:12;19.60;99.90
13642;DHT22;6894;52.196;9.904;2023-07-24T01:40:40;19.60;99.90
13642;DHT22;6894;52.196;9.904;2023-07-24T01:43:08;19.60;99.90
13642;DHT22;6894;52.196;9.904;2023-07-24T01:45:35;19.60;99.90
13642;DHT22;6894;52.196;9.904;2023-07-24T01:48:03;19.70;99.90
13642;DHT22;6894;52.196;9.904;2023-07-24T01:50:30;19.60;99.90
13642;DHT22;6894;52.196;9.904;2023-07-24T01:52:56;19.60;99.90
13642;DHT22;6894;52.196;9.904;2023-07-24T01:55:23;19.60;99.90
13642;DHT22;6894;52.196;9.904;2023-07-24T01:57:50;19.60;99.90
13642;DHT22;6894;52.196;9.904;2023-07-24T02:00:18;19.60;99.90
13642;DHT22;6894;52.196;9.904;2023-07-24T02:02:45;19.60;99.90
13642;DHT22;6894;52.196;9.904;2023-07-24T02:05:11;19.60;99.90
13642;DHT22;6894;52.196;9.904;2023-07-24T02:07:38;19.60;99.90
13642;DHT22;6894;52.196;9.904;2023-07-24T02:10:06;19.60;99.90
13642;DHT22;6894;52.196;9.904;2023-07-24T02:12:33;19.60;99.90
13642;DHT22;6894;52.196;9.904;2023-07-24T02:14:59;19.60;99.90
13642;DHT22;6894;52.196;9.904;2023-07-24T02:17:27;19.60;99.90
13642;DHT22;6894;52.196;9.904;2023-07-24T02:19:54;19.60;99.90
13642;DHT22;6894;52.196;9.904;2023-07-24T02:22:21;19.50;99.90
13642;DHT22;6894;52.196;9.904;2023-07-24T02:24:47;19.60;99.90
13642;DHT22;6894;52.196;9.904;2023-07-24T02:27:24;19.60;99.90
13642;DHT22;6894;52.196;9.904;2023-07-24T02:29:52;19.50;99.90
13642;DHT22;6894;52.196;9.904;2023-07-24T02:32:18;19.50;99.90
13642;DHT22;6894;52.196;9.904;2023-07-24T02:34:48;19.50;99.90
13642;DHT22;6894;52.196;9.904;2023-07-24T02:37:15;19.50;99.90
13642;DHT22;6894;52.196;9.904;2023-07-24T02:39:42;19.40;99.90
13642;DHT22;6894;52.196;9.904;2023-07-24T02:42:08;19.40;99.90
13642;DHT22;6894;52.196;9.904;2023-07-24T02:44:35;19.40;99.90
13642;DHT22;6894;52.196;9.904;2023-07-24T02:47:02;19.40;99.90
13642;DHT22;6894;52.196;9.904;2023-07-24T02:49:29;19.40;99.90
13642;DHT22;6894;52.196;9.904;2023-07-24T02:51:57;19.30;99.90
13642;DHT22;6894;52.196;9.904;2023-07-24T02:54:25;19.20;99.90
13642;DHT22;6894;52.196;9.904;2023-07-24T02:56:52;19.20;99.90
13642;DHT22;6894;52.196;9.904;2023-07-24T02:59:18;19.10;99.90
13642;DHT22;6894;52.196;9.904;2023-07-24T03:01:45;19.00;99.90
13642;DHT22;6894;52.196;9.904;2023-07-24T03:04:13;19.00;99.90
13642;DHT22;6894;52.196;9.904;2023-07-24T03:06:40;18.90;99.90
13642;DHT22;6894;52.196;9.904;2023-07-24T03:09:08;18.90;99.90
13642;DHT22;6894;52.196;9.904;2023-07-24T03:11:34;18.90;99.90
13642;DHT22;6894;52.196;9.904;2023-07-24T03:14:01;18.90;99.90
13642;DHT22;6894;52.196;9.904;2023-07-24T03:16:27;18.80;99.90
13642;DHT22;6894;52.196;9.904;2023-07-24T03:18:54;18.80;99.90
13642;DHT22;6894;52.196;9.904;2023-07-24T03:21:20;18.70;99.90
13642;DHT22;6894;52.196;9.904;2023-07-24T03:23:47;18.70;99.90
13642;DHT22;6894;52.196;9.904;2023-07-24T03:26:15;18.70;99.90
13642;DHT22;6894;52.196;9.904;2023-07-24T03:28:42;18.60;99.90
13642;DHT22;6894;52.196;9.904;2023-07-24T03:31:09;18.60;99.90
13642;DHT22;6894;52.196;9.904;2023-07-24T03:33:35;18.50;99.90
13642;DHT22;6894;52.196;9.904;2023-07-24T03:36:02;18.60;99.90
13642;DHT22;6894;52.196;9.904;2023-07-24T03:38:30;18.50;99.90
13642;DHT22;6894;52.196;9.904;2023-07-24T03:40:56;18.50;99.90
13642;DHT22;6894;52.196;9.904;2023-07-24T03:43:24;18.50;99.90
13642;DHT22;6894;52.196;9.904;2023-07-24T03:45:51;18.50;99.90
13642;DHT22;6894;52.196;9.904;2023-07-24T03:48:18;18.50;99.90
13642;DHT22;6894;52.196;9.904;2023-07-24T03:50:44;18.40;99.90
13642;DHT22;6894;52.196;9.904;2023-07-24T03:53:11;18.30;99.90
13642;DHT22;6894;52.196;9.904;2023-07-24T03:55:38;18.40;99.90
13642;DHT22;6894;52.196;9.904;2023-07-24T03:58:04;18.50;99.90
13642;DHT22;6894;52.196;9.904;2023-07-24T04:00:32;18.40;99.90
13642;DHT22;6894;52.196;9.904;2023-07-24T04:02:59;18.40;99.90
13642;DHT22;6894;52.196;9.904;2023-07-24T04:05:26;18.50;99.90
13642;DHT22;6894;52.196;9.904;2023-07-24T04:07:54;18.50;99.90
13642;DHT22;6894;52.196;9.904;2023-07-24T04:10:21;18.40;99.90
13642;DHT22;6894;52.196;9.904;2023-07-24T04:12:47;18.50;99.90
13642;DHT22;6894;52.196;9.904;2023-07-24T04:15:14;18.40;99.90
13642;DHT22;6894;52.196;9.904;2023-07-24T04:17:42;18.50;99.90
13642;DHT22;6894;52.196;9.904;2023-07-24T04:20:10;18.50;99.90
13642;DHT22;6894;52.196;9.904;2023-07-24T04:22:36;18.40;99.90
13642;DHT22;6894;52.196;9.904;2023-07-24T04:25:04;18.50;99.90
13642;DHT22;6894;52.196;9.904;2023-07-24T04:27:31;18.40;99.90
13642;DHT22;6894;52.196;9.904;2023-07-24T04:29:57;18.40;99.90
13642;DHT22;6894;52.196;9.904;2023-07-24T04:32:26;18.30;99.90
13642;DHT22;6894;52.196;9.904;2023-07-24T04:34:54;18.30;99.90
13642;DHT22;6894;52.196;9.904;2023-07-24T04:37:20;18.30;99.90
13642;DHT22;6894;52.196;9.904;2023-07-24T04:39:47;18.30;99.90
13642;DHT22;6894;52.196;9.904;2023-07-24T04:42:14;18.30;99.90
13642;DHT22;6894;52.196;9.904;2023-07-24T04:44:40;18.20;99.90
13642;DHT22;6894;52.196;9.904;2023-07-24T04:47:07;18.20;99.90
13642;DHT22;6894;52.196;9.904;2023-07-24T04:49:34;18.30;99.90
13642;DHT22;6894;52.196;9.904;2023-07-24T04:52:02;18.40;99.90
13642;DHT22;6894;52.196;9.904;2023-07-24T04:54:29;18.40;99.90
13642;DHT22;6894;52.196;9.904;2023-07-24T04:56:56;18.50;99.90
13642;DHT22;6894;52.196;9.904;2023-07-24T04:59:23;18.60;99.90
13642;DHT22;6894;52.196;9.904;2023-07-24T05:01:50;18.70;99.90
13642;DHT22;6894;52.196;9.904;2023-07-24T05:04:16;18.90;99.90
13642;DHT22;6894;52.196;9.904;2023-07-24T05:06:43;18.90;99.90
13642;DHT22;6894;52.196;9.904;2023-07-24T05:09:11;19.10;99.90
13642;DHT22;6894;52.196;9.904;2023-07-24T05:11:38;19.20;99.90
13642;DHT22;6894;52.196;9.904;2023-07-24T05:14:05;19.40;99.90
13642;DHT22;6894;52.196;9.904;2023-07-24T05:16:31;19.50;99.90
13642;DHT22;6894;52.196;9.904;2023-07-24T05:18:58;19.60;99.90
13642;DHT22;6894;52.196;9.904;2023-07-24T05:21:25;19.70;99.90
13642;DHT22;6894;52.196;9.904;2023-07-24T05:23:51;19.60;99.90
13642;DHT22;6894;52.196;9.904;2023-07-24T05:26:19;19.60;99.90
13642;DHT22;6894;52.196;9.904;2023-07-24T05:28:47;19.60;99.90
13642;DHT22;6894;52.196;9.904;2023-07-24T05:31:14;19.60;99.90
13642;DHT22;6894;52.196;9.904;2023-07-24T05:33:40;19.60;99.90
13642;DHT22;6894;52.196;9.904;2023-07-24T05:36:07;19.60;99.90
13642;DHT22;6894;52.196;9.904;2023-07-24T05:38:34;19.70;99.90
13642;DHT22;6894;52.196;9.904;2023-07-24T05:41:01;19.70;99.90
13642;DHT22;6894;52.196;9.904;2023-07-24T05:43:30;19.70;99.90
13642;DHT22;6894;52.196;9.904;2023-07-24T05:45:58;19.70;99.90
13642;DHT22;6894;52.196;9.904;2023-07-24T05:48:25;19.60;99.90
13642;DHT22;6894;52.196;9.904;2023-07-24T05:50:52;19.60;99.90
13642;DHT22;6894;52.196;9.904;2023-07-24T05:53:18;19.60;99.90
13642;DHT22;6894;52.196;9.904;2023-07-24T05:55:45;19.60;99.90
13642;DHT22;6894;52.196;9.904;2023-07-24T05:58:12;19.50;99.90
13642;DHT22;6894;52.196;9.904;2023-07-24T06:00:40;19.60;99.90
13642;DHT22;6894;52.196;9.904;2023-07-24T06:03:07;19.60;99.90
13642;DHT22;6894;52.196;9.904;2023-07-24T06:05:33;19.60;99.90
13642;DHT22;6894;52.196;9.904;2023-07-24T06:08:00;19.60;99.90
13642;DHT22;6894;52.196;9.904;2023-07-24T06:10:27;19.70;99.90
13642;DHT22;6894;52.196;9.904;2023-07-24T06:12:53;19.70;99.90
13642;DHT22;6894;52.196;9.904;2023-07-24T06:15:22;19.80;99.90
13642;DHT22;6894;52.196;9.904;2023-07-24T06:17:50;19.90;99.90
13642;DHT22;6894;52.196;9.904;2023-07-24T06:20:17;20.10;99.90
13642;DHT22;6894;52.196;9.904;2023-07-24T06:22:44;20.20;99.90
13642;DHT22;6894;52.196;9.904;2023-07-24T06:25:10;20.30;99.90
13642;DHT22;6894;52.196;9.904;2023-07-24T06:27:37;20.40;99.90
13642;DHT22;6894;52.196;9.904;2023-07-24T06:30:05;20.40;99.90
13642;DHT22;6894;52.196;9.904;2023-07-24T06:32:32;20.50;99.90
13642;DHT22;6894;52.196;9.904;2023-07-24T06:35:00;20.60;99.90
13642;DHT22;6894;52.196;9.904;2023-07-24T06:37:27;20.70;99.90
13642;DHT22;6894;52.196;9.904;2023-07-24T06:39:53;20.70;99.90
13642;DHT22;6894;52.196;9.904;2023-07-24T06:42:20;20.60;99.90
13642;DHT22;6894;52.196;9.904;2023-07-24T06:44:47;20.70;99.90
13642;DHT22;6894;52.196;9.904;2023-07-24T06:47:13;20.70;99.90
13642;DHT22;6894;52.196;9.904;2023-07-24T06:49:40;20.70;99.90
13642;DHT22;6894;52.196;9.904;2023-07-24T06:52:08;20.70;99.90
13642;DHT22;6894;52.196;9.904;2023-07-24T06:54:35;20.70;99.90
13642;DHT22;6894;52.196;9.904;2023-07-24T06:57:02;20.80;99.90
13642;DHT22;6894;52.196;9.904;2023-07-24T06:59:28;20.80;99.90
13642;DHT22;6894;52.196;9.904;2023-07-24T07:01:55;20.80;99.90
13642;DHT22;6894;52.196;9.904;2023-07-24T07:04:22;20.90;99.90
13642;DHT22;6894;52.196;9.904;2023-07-24T07:06:48;21.00;99.90
13642;DHT22;6894;52.196;9.904;2023-07-24T07:09:17;21.20;99.90
13642;DHT22;6894;52.196;9.904;2023-07-24T07:11:43;21.40;99.90
13642;DHT22;6894;52.196;9.904;2023-07-24T07:14:10;21.50;99.90
13642;DHT22;6894;52.196;9.904;2023-07-24T07:16:38;21.40;99.90
13642;DHT22;6894;52.196;9.904;2023-07-24T07:19:05;21.40;99.90
13642;DHT22;6894;52.196;9.904;2023-07-24T07:21:31;21.30;99.90
13642;DHT22;6894;52.196;9.904;2023-07-24T07:23:58;21.30;99.90
13642;DHT22;6894;52.196;9.904;2023-07-24T07:26:26;21.40;99.90
13642;DHT22;6894;52.196;9.904;2023-07-24T07:28:54;21.50;99.90
13642;DHT22;6894;52.196;9.904;2023-07-24T07:31:21;21.60;99.90
13642;DHT22;6894;52.196;9.904;2023-07-24T07:33:48;21.80;99.90
13642;DHT22;6894;52.196;9.904;2023-07-24T07:36:15;22.10;99.90
13642;DHT22;6894;52.196;9.904;2023-07-24T07:38:43;22.40;99.90
13642;DHT22;6894;52.196;9.904;2023-07-24T07:41:09;22.80;99.90
13642;DHT22;6894;52.196;9.904;2023-07-24T07:43:37;22.90;99.90
13642;DHT22;6894;52.196;9.904;2023-07-24T07:46:04;22.90;99.90
13642;DHT22;6894;52.196;9.904;2023-07-24T07:48:31;22.70;99.90
13642;DHT22;6894;52.196;9.904;2023-07-24T07:50:58;22.70;99.90
13642;DHT22;6894;52.196;9.904;2023-07-24T07:53:25;22.70;99.90
13642;DHT22;6894;52.196;9.904;2023-07-24T07:55:55;22.70;99.90
13642;DHT22;6894;52.196;9.904;2023-07-24T07:58:22;22.70;99.90
13642;DHT22;6894;52.196;9.904;2023-07-24T08:00:50;23.00;99.90
13642;DHT22;6894;52.196;9.904;2023-07-24T08:03:17;23.20;99.90
13642;DHT22;6894;52.196;9.904;2023-07-24T08:05:44;23.20;99.90
13642;DHT22;6894;52.196;9.904;2023-07-24T08:08:11;23.20;99.90
13642;DHT22;6894;52.196;9.904;2023-07-24T08:10:37;23.20;99.90
13642;DHT22;6894;52.196;9.904;2023-07-24T08:13:04;22.90;99.90
13642;DHT22;6894;52.196;9.904;2023-07-24T08:15:34;22.60;99.90
13642;DHT22;6894;52.196;9.904;2023-07-24T08:18:03;22.40;99.90
13642;DHT22;6894;52.196;9.904;2023-07-24T08:20:31;22.00;99.90
13642;DHT22;6894;52.196;9.904;2023-07-24T08:22:58;21.90;99.90
13642;DHT22;6894;52.196;9.904;2023-07-24T08:25:25;21.80;99.90
13642;DHT22;6894;52.196;9.904;2023-07-24T08:27:51;21.70;99.90
13642;DHT22;6894;52.196;9.904;2023-07-24T08:30:18;22.00;99.90
13642;DHT22;6894;52.196;9.904;2023-07-24T08:32:45;22.30;99.90
13642;DHT22;6894;52.196;9.904;2023-07-24T08:35:13;22.20;99.90
13642;DHT22;6894;52.196;9.904;2023-07-24T08:37:42;22.10;99.90
13642;DHT22;6894;52.196;9.904;2023-07-24T08:40:10;22.00;99.90
13642;DHT22;6894;52.196;9.904;2023-07-24T08:42:38;22.00;99.90
13642;DHT22;6894;52.196;9.904;2023-07-24T08:45:10;21.90;99.90
13642;DHT22;6894;52.196;9.904;2023-07-24T08:47:38;21.90;99.90
13642;DHT22;6894;52.196;9.904;2023-07-24T08:50:07;21.90;99.90
13642;DHT22;6894;52.196;9.904;2023-07-24T08:52:38;22.00;99.90
13642;DHT22;6894;52.196;9.904;2023-07-24T08:55:05;22.00;99.90
13642;DHT22;6894;52.196;9.904;2023-07-24T08:57:32;22.10;99.90
13642;DHT22;6894;52.196;9.904;2023-07-24T08:59:59;22.10;99.90
13642;DHT22;6894;52.196;9.904;2023-07-24T09:02:30;22.20;99.90
13642;DHT22;6894;52.196;9.904;2023-07-24T09:04:57;22.10;99.90
13642;DHT22;6894;52.196;9.904;2023-07-24T09:07:24;22.20;99.90
13642;DHT22;6894;52.196;9.904;2023-07-24T09:09:52;22.30;99.90
13642;DHT22;6894;52.196;9.904;2023-07-24T09:12:21;22.20;99.90
13642;DHT22;6894;52.196;9.904;2023-07-24T09:14:48;22.10;99.90
13642;DHT22;6894;52.196;9.904;2023-07-24T09:17:15;22.00;99.90
13642;DHT22;6894;52.196;9.904;2023-07-24T09:19:42;21.90;99.90
13642;DHT22;6894;52.196;9.904;2023-07-24T09:22:10;21.80;99.90
13642;DHT22;6894;52.196;9.904;2023-07-24T09:24:37;21.80;99.90
13642;DHT22;6894;52.196;9.904;2023-07-24T09:27:06;21.90;99.90
13642;DHT22;6894;52.196;9.904;2023-07-24T09:29:35;21.90;99.90
13642;DHT22;6894;52.196;9.904;2023-07-24T09:32:02;22.20;99.90
13642;DHT22;6894;52.196;9.904;2023-07-24T09:34:29;22.30;99.90
13642;DHT22;6894;52.196;9.904;2023-07-24T09:36:58;22.30;99.90
13642;DHT22;6894;52.196;9.904;2023-07-24T09:39:25;22.40;99.90
13642;DHT22;6894;52.196;9.904;2023-07-24T09:41:52;22.70;99.90
13642;DHT22;6894;52.196;9.904;2023-07-24T09:44:21;23.00;99.90
13642;DHT22;6894;52.196;9.904;2023-07-24T09:46:51;23.30;99.90
13642;DHT22;6894;52.196;9.904;2023-07-24T09:49:19;23.50;99.90
13642;DHT22;6894;52.196;9.904;2023-07-24T09:51:47;23.80;99.90
13642;DHT22;6894;52.196;9.904;2023-07-24T09:54:22;23.70;99.90
13642;DHT22;6894;52.196;9.904;2023-07-24T09:56:50;23.70;99.90
13642;DHT22;6894;52.196;9.904;2023-07-24T09:59:18;23.90;99.90
13642;DHT22;6894;52.196;9.904;2023-07-24T10:01:48;23.60;99.90
13642;DHT22;6894;52.196;9.904;2023-07-24T10:04:15;23.40;99.90
13642;DHT22;6894;52.196;9.904;2023-07-24T10:06:43;23.40;99.90
13642;DHT22;6894;52.196;9.904;2023-07-24T10:09:11;23.30;99.90
13642;DHT22;6894;52.196;9.904;2023-07-24T10:11:38;23.50;99.90
13642;DHT22;6894;52.196;9.904;2023-07-24T10:14:05;23.40;99.90
13642;DHT22;6894;52.196;9.904;2023-07-24T10:16:32;23.40;99.90
13642;DHT22;6894;52.196;9.904;2023-07-24T10:19:00;23.60;99.90
13642;DHT22;6894;52.196;9.904;2023-07-24T10:21:27;24.00;99.90
13642;DHT22;6894;52.196;9.904;2023-07-24T10:23:54;23.70;99.90
13642;DHT22;6894;52.196;9.904;2023-07-24T10:26:24;23.90;99.90
13642;DHT22;6894;52.196;9.904;2023-07-24T10:28:52;24.30;99.90
13642;DHT22;6894;52.196;9.904;2023-07-24T10:31:20;24.60;99.90
13642;DHT22;6894;52.196;9.904;2023-07-24T10:33:47;25.00;99.90
13642;DHT22;6894;52.196;9.904;2023-07-24T10:36:17;25.40;99.90
13642;DHT22;6894;52.196;9.904;2023-07-24T10:38:46;25.60;99.90
13642;DHT22;6894;52.196;9.904;2023-07-24T10:41:13;25.40;99.90
13642;DHT22;6894;52.196;9.904;2023-07-24T10:43:42;25.50;99.90
13642;DHT22;6894;52.196;9.904;2023-07-24T10:46:09;25.40;99.90
13642;DHT22;6894;52.196;9.904;2023-07-24T10:48:36;25.20;99.90
13642;DHT22;6894;52.196;9.904;2023-07-24T10:51:07;25.20;99.90
13642;DHT22;6894;52.196;9.904;2023-07-24T10:53:36;25.00;99.90
13642;DHT22;6894;52.196;9.904;2023-07-24T10:56:04;25.00;99.90
13642;DHT22;6894;52.196;9.904;2023-07-24T10:58:32;25.20;99.90
13642;DHT22;6894;52.196;9.904;2023-07-24T11:00:58;25.40;99.90
13642;DHT22;6894;52.196;9.904;2023-07-24T11:03:26;25.30;99.90
13642;DHT22;6894;52.196;9.904;2023-07-24T11:05:54;25.40;99.90
13642;DHT22;6894;52.196;9.904;2023-07-24T11:08:21;25.60;99.90
13642;DHT22;6894;52.196;9.904;2023-07-24T11:10:50;25.90;99.90
13642;DHT22;6894;52.196;9.904;2023-07-24T11:13:18;26.20;99.90
13642;DHT22;6894;52.196;9.904;2023-07-24T11:15:46;26.50;99.90
13642;DHT22;6894;52.196;9.904;2023-07-24T11:18:13;26.50;99.90
13642;DHT22;6894;52.196;9.904;2023-07-24T11:20:44;26.20;99.90
13642;DHT22;6894;52.196;9.904;2023-07-24T11:23:11;26.10;99.90
13642;DHT22;6894;52.196;9.904;2023-07-24T11:25:39;26.20;99.90
13642;DHT22;6894;52.196;9.904;2023-07-24T11:28:09;26.10;99.90
13642;DHT22;6894;52.196;9.904;2023-07-24T11:30:36;26.20;99.90
13642;DHT22;6894;52.196;9.904;2023-07-24T11:33:05;26.60;99.90
13642;DHT22;6894;52.196;9.904;2023-07-24T11:35:33;26.80;99.90
13642;DHT22;6894;52.196;9.904;2023-07-24T11:38:00;27.00;99.90
13642;DHT22;6894;52.196;9.904;2023-07-24T11:40:31;27.20;99.90
13642;DHT22;6894;52.196;9.904;2023-07-24T11:42:59;27.30;99.90
13642;DHT22;6894;52.196;9.904;2023-07-24T11:45:27;27.40;99.90
13642;DHT22;6894;52.196;9.904;2023-07-24T11:47:54;26.90;99.90
13642;DHT22;6894;52.196;9.904;2023-07-24T11:50:22;26.70;99.90
13642;DHT22;6894;52.196;9.904;2023-07-24T11:52:51;26.50;99.90
13642;DHT22;6894;52.196;9.904;2023-07-24T11:55:19;26.00;99.90
13642;DHT22;6894;52.196;9.904;2023-07-24T11:57:56;26.00;99.90
13642;DHT22;6894;52.196;9.904;2023-07-24T12:00:23;26.20;99.90
13642;DHT22;6894;52.196;9.904;2023-07-24T12:02:51;26.30;99.90
13642;DHT22;6894;52.196;9.904;2023-07-24T12:05:18;26.30;99.90
13642;DHT22;6894;52.196;9.904;2023-07-24T12:07:45;26.40;99.90
13642;DHT22;6894;52.196;9.904;2023-07-24T12:10:13;26.30;99.90
13642;DHT22;6894;52.196;9.904;2023-07-24T12:12:50;26.40;99.90
13642;DHT22;6894;52.196;9.904;2023-07-24T12:15:17;26.40;99.90
13642;DHT22;6894;52.196;9.904;2023-07-24T12:17:44;26.20;99.90
13642;DHT22;6894;52.196;9.904;2023-07-24T12:20:12;26.00;99.90
13642;DHT22;6894;52.196;9.904;2023-07-24T12:22:39;25.90;99.90
13642;DHT22;6894;52.196;9.904;2023-07-24T12:25:06;25.70;99.90
13642;DHT22;6894;52.196;9.904;2023-07-24T12:27:33;25.60;99.90
13642;DHT22;6894;52.196;9.904;2023-07-24T12:30:00;25.40;99.90
13642;DHT22;6894;52.196;9.904;2023-07-24T12:32:27;25.10;99.90
13642;DHT22;6894;52.196;9.904;2023-07-24T12:34:53;25.30;99.90
13642;DHT22;6894;52.196;9.904;2023-07-24T12:37:21;25.40;99.90
13642;DHT22;6894;52.196;9.904;2023-07-24T12:39:49;25.40;99.90
13642;DHT22;6894;52.196;9.904;2023-07-24T12:42:16;25.40;99.90
13642;DHT22;6894;52.196;9.904;2023-07-24T12:44:43;25.50;99.90
13642;DHT22;6894;52.196;9.904;2023-07-24T12:47:10;25.50;99.90
13642;DHT22;6894;52.196;9.904;2023-07-24T12:49:37;25.20;99.90
13642;DHT22;6894;52.196;9.904;2023-07-24T12:52:05;24.90;99.90
13642;DHT22;6894;52.196;9.904;2023-07-24T12:54:34;24.80;99.90
13642;DHT22;6894;52.196;9.904;2023-07-24T12:57:01;24.60;99.90
13642;DHT22;6894;52.196;9.904;2023-07-24T12:59:28;24.20;99.90
13642;DHT22;6894;52.196;9.904;2023-07-24T13:01:55;24.10;99.90
13642;DHT22;6894;52.196;9.904;2023-07-24T13:04:22;24.20;99.90
13642;DHT22;6894;52.196;9.904;2023-07-24T13:06:49;24.20;99.90
13642;DHT22;6894;52.196;9.904;2023-07-24T13:09:17;24.30;99.90
13642;DHT22;6894;52.196;9.904;2023-07-24T13:11:45;24.40;99.90
13642;DHT22;6894;52.196;9.904;2023-07-24T13:14:14;24.30;99.90
13642;DHT22;6894;52.196;9.904;2023-07-24T13:16:40;24.60;99.90
13642;DHT22;6894;52.196;9.904;2023-07-24T13:19:07;24.90;99.90
13642;DHT22;6894;52.196;9.904;2023-07-24T13:21:34;25.20;99.90
13642;DHT22;6894;52.196;9.904;2023-07-24T13:24:00;25.50;99.90
13642;DHT22;6894;52.196;9.904;2023-07-24T13:26:27;25.90;99.90
13642;DHT22;6894;52.196;9.904;2023-07-24T13:28:55;26.20;99.90
13642;DHT22;6894;52.196;9.904;2023-07-24T13:31:22;25.80;99.90
13642;DHT22;6894;52.196;9.904;2023-07-24T13:33:48;25.60;99.90
13642;DHT22;6894;52.196;9.904;2023-07-24T13:36:15;25.50;99.90
13642;DHT22;6894;52.196;9.904;2023-07-24T13:38:42;25.40;99.90
13642;DHT22;6894;52.196;9.904;2023-07-24T13:41:08;25.40;99.90
13642;DHT22;6894;52.196;9.904;2023-07-24T13:43:35;25.40;99.90
13642;DHT22;6894;52.196;9.904;2023-07-24T13:46:03;25.40;99.90
13642;DHT22;6894;52.196;9.904;2023-07-24T13:48:30;25.10;99.90
13642;DHT22;6894;52.196;9.904;2023-07-24T13:50:57;25.20;99.90
13642;DHT22;6894;52.196;9.904;2023-07-24T13:53:24;25.80;99.90
13642;DHT22;6894;52.196;9.904;2023-07-24T13:55:51;25.90;99.90
13642;DHT22;6894;52.196;9.904;2023-07-24T13:58:17;26.00;99.90
13642;DHT22;6894;52.196;9.904;2023-07-24T14:00:44;25.50;99.90
13642;DHT22;6894;52.196;9.904;2023-07-24T14:03:12;25.20;99.90
13642;DHT22;6894;52.196;9.904;2023-07-24T14:05:39;25.10;99.90
13642;DHT22;6894;52.196;9.904;2023-07-24T14:08:07;24.80;99.90
13642;DHT22;6894;52.196;9.904;2023-07-24T14:10:34;24.40;99.90
13642;DHT22;6894;52.196;9.904;2023-07-24T14:13:00;23.90;99.90
13642;DHT22;6894;52.196;9.904;2023-07-24T14:15:28;23.80;99.90
13642;DHT22;6894;52.196;9.904;2023-07-24T14:17:54;23.80;99.90
13642;DHT22;6894;52.196;9.904;2023-07-24T14:20:22;23.70;99.90
13642;DHT22;6894;52.196;9.904;2023-07-24T14:22:49;23.60;99.90
13642;DHT22;6894;52.196;9.904;2023-07-24T14:25:16;22.80;99.90
13642;DHT22;6894;52.196;9.904;2023-07-24T14:27:42;20.80;99.90
13642;DHT22;6894;52.196;9.904;2023-07-24T14:30:09;19.80;99.90
13642;DHT22;6894;52.196;9.904;2023-07-24T14:32:37;19.40;99.90
13642;DHT22;6894;52.196;9.904;2023-07-24T14:35:04;19.40;99.90
13642;DHT22;6894;52.196;9.904;2023-07-24T14:37:32;19.20;99.90
13642;DHT22;6894;52.196;9.904;2023-07-24T14:39:59;19.00;99.90
13642;DHT22;6894;52.196;9.904;2023-07-24T14:42:25;18.90;99.90
13642;DHT22;6894;52.196;9.904;2023-07-24T14:44:52;18.80;99.90
13642;DHT22;6894;52.196;9.904;2023-07-24T14:47:19;18.70;99.90
13642;DHT22;6894;52.196;9.904;2023-07-24T14:49:46;18.60;99.90
13642;DHT22;6894;52.196;9.904;2023-07-24T14:52:12;18.50;99.90
13642;DHT22;6894;52.196;9.904;2023-07-24T14:54:41;18.50;99.90
13642;DHT22;6894;52.196;9.904;2023-07-24T14:57:07;18.40;99.90
13642;DHT22;6894;52.196;9.904;2023-07-24T14:59:36;18.40;99.90
13642;DHT22;6894;52.196;9.904;2023-07-24T15:02:03;18.30;99.90
13642;DHT22;6894;52.196;9.904;2023-07-24T15:04:30;18.30;99.90
13642;DHT22;6894;52.196;9.904;2023-07-24T15:06:57;18.10;99.90
13642;DHT22;6894;52.196;9.904;2023-07-24T15:09:24;18.00;99.90
13642;DHT22;6894;52.196;9.904;2023-07-24T15:11:52;17.90;99.90
13642;DHT22;6894;52.196;9.904;2023-07-24T15:14:19;18.00;99.90
13642;DHT22;6894;52.196;9.904;2023-07-24T15:16:45;18.00;99.90
13642;DHT22;6894;52.196;9.904;2023-07-24T15:19:12;18.10;99.90
13642;DHT22;6894;52.196;9.904;2023-07-24T15:21:39;18.10;99.90
13642;DHT22;6894;52.196;9.904;2023-07-24T15:24:05;18.00;99.90
13642;DHT22;6894;52.196;9.904;2023-07-24T15:26:32;17.90;99.90
13642;DHT22;6894;52.196;9.904;2023-07-24T15:29:00;17.80;99.90
13642;DHT22;6894;52.196;9.904;2023-07-24T15:31:27;17.80;99.90
13642;DHT22;6894;52.196;9.904;2023-07-24T15:33:56;17.70;99.90
13642;DHT22;6894;52.196;9.904;2023-07-24T15:36:22;17.70;99.90
13642;DHT22;6894;52.196;9.904;2023-07-24T15:38:49;17.90;99.90
13642;DHT22;6894;52.196;9.904;2023-07-24T15:41:16;17.90;99.90
13642;DHT22;6894;52.196;9.904;2023-07-24T15:43:42;18.10;99.90
13642;DHT22;6894;52.196;9.904;2023-07-24T15:46:10;18.30;99.90